Time;durP1;ratioP1;P1;durP2;ratioP2;P2;SDS_P1;SDS_P2;PMS_P1;PMS_P2;Temp;Humidity;BMP_temperature;BMP_pressure;BME280_temperature;BME280_humidity;BME280_pressure;Samples;Min_cycle;Max_cycle;Signal;HPM_P1;HPM_P2
2021/12/24 00:00:36;;;;;;;;;5.25;5.25;;;;;12.80;42.01;97126.00;4840120;28;104199;-59
2021/12/24 00:03:03;;;;;;;;;6.00;5.75;;;;;12.91;45.29;97118.84;4917265;28;103493;-59
2021/12/24 00:05:31;;;;;;;;;9.00;8.75;;;;;13.07;48.94;97123.38;4886126;28;104841;-59
2021/12/24 00:07:59;;;;;;;;;11.50;9.00;;;;;13.20;49.71;97109.44;4911686;28;104524;-59
2021/12/24 00:10:26;;;;;;;;;9.50;7.25;;;;;13.33;50.41;97119.91;4912478;28;102332;-59
2021/12/24 00:12:59;;;;;;;;;8.50;7.25;;;;;13.44;50.02;97095.59;4899071;28;102429;-59
2021/12/24 00:15:50;;;;;;;;;9.75;9.00;;;;;13.54;50.30;97096.53;4910770;28;103113;-59
2021/12/24 00:35:06;;;;;;;;;9.50;8.00;;;;;13.83;50.96;97069.88;4897278;28;102530;-59
2021/12/24 00:37:22;;;;;;;;;7.25;6.50;;;;;14.25;49.73;97059.88;4903905;28;102602;-59
2021/12/24 00:40:00;;;;;;;;;6.50;5.50;;;;;14.32;50.12;97051.47;4911896;28;103836;-59
2021/12/24 00:42:27;;;;;;;;;9.00;5.50;;;;;14.40;49.94;97051.03;4909829;28;102358;-59
2021/12/24 00:44:54;;;;;;;;;7.00;6.00;;;;;14.45;49.38;97044.81;4890852;28;102273;-59
2021/12/24 00:47:21;;;;;;;;;5.25;5.25;;;;;14.51;49.83;97032.84;4899045;28;102656;-59
2021/12/24 00:49:48;;;;;;;;;8.50;6.00;;;;;14.57;49.87;97031.81;4893531;28;104050;-59
2021/12/24 00:55:06;;;;;;;;;5.75;5.00;;;;;14.69;49.38;97019.63;4914438;28;102403;-59
2021/12/24 00:57:37;;;;;;;;;5.00;5.00;;;;;14.76;48.94;97015.84;4907609;28;102761;-59
2021/12/24 01:00:07;;;;;;;;;6.00;6.00;;;;;14.81;48.74;97015.88;4884977;28;103985;-59
2021/12/24 01:02:34;;;;;;;;;6.50;6.50;;;;;14.88;48.99;97019.97;4769392;28;105560;-59
2021/12/24 01:05:01;;;;;;;;;7.75;6.00;;;;;14.92;48.97;97006.63;4688053;28;102394;-59
2021/12/24 01:07:28;;;;;;;;;6.25;6.00;;;;;14.96;48.72;97003.13;4799414;28;102692;-59
2021/12/24 01:09:55;;;;;;;;;6.00;6.00;;;;;15.02;48.49;97012.13;4828970;28;104005;-59
2021/12/24 01:12:24;;;;;;;;;6.25;5.75;;;;;15.05;48.32;97009.69;4898785;28;102695;-59
2021/12/24 01:14:51;;;;;;;;;6.25;5.75;;;;;15.09;48.48;96999.06;4851291;28;103212;-59
2021/12/24 01:19:48;;;;;;;;;6.50;5.50;;;;;15.17;48.13;96991.19;4916115;28;104256;-59
2021/12/24 01:28:02;;;;;;;;;5.00;4.50;;;;;15.30;47.55;96975.44;4874734;28;103156;-59
2021/12/24 01:38:38;;;;;;;;;5.50;3.75;;;;;15.48;47.44;96958.56;4867120;28;109975;-59
2021/12/24 01:41:09;;;;;;;;;7.00;4.00;;;;;15.52;47.45;96962.41;4771980;28;108983;-59
2021/12/24 01:43:36;;;;;;;;;5.75;5.25;;;;;15.55;47.39;96962.66;4843721;28;102666;-59
2021/12/24 01:46:03;;;;;;;;;7.00;6.25;;;;;15.57;47.31;96954.22;4910140;28;102640;-59
2021/12/24 01:48:30;;;;;;;;;5.75;5.75;;;;;15.60;47.38;96948.22;4752472;28;104717;-59
2021/12/24 01:50:57;;;;;;;;;8.00;5.75;;;;;15.62;47.24;96956.94;4837148;28;104041;-59
2021/12/24 01:53:25;;;;;;;;;4.75;4.00;;;;;15.64;46.94;96938.41;4894263;27;103384;-59
2021/12/24 01:55:52;;;;;;;;;6.75;6.00;;;;;15.66;47.03;96936.25;4898523;28;102488;-60
2021/12/24 01:58:23;;;;;;;;;6.00;4.75;;;;;15.69;47.02;96938.41;4873490;28;102466;-59
2021/12/24 02:00:51;;;;;;;;;4.75;4.75;;;;;15.72;46.90;96929.69;4882772;28;105221;-59
2021/12/24 02:03:18;;;;;;;;;6.00;5.00;;;;;15.74;46.75;96916.59;4768557;28;104412;-59
2021/12/24 02:05:46;;;;;;;;;5.25;5.00;;;;;15.75;47.25;96922.88;4686856;28;107583;-60
2021/12/24 02:08:13;;;;;;;;;7.00;5.25;;;;;15.77;46.71;96907.06;4627814;28;104276;-59
2021/12/24 02:10:40;;;;;;;;;7.75;5.50;;;;;15.79;46.51;96904.88;4633748;28;104031;-59
2021/12/24 02:13:07;;;;;;;;;4.75;4.00;;;;;15.81;46.77;96911.69;4780200;27;103345;-59
2021/12/24 02:16:01;;;;;;;;;5.00;4.00;;;;;15.83;46.54;96906.78;4863217;27;102544;-58
2021/12/24 02:29:25;;;;;;;;;6.00;4.50;;;;;15.95;45.52;96877.31;4804698;28;103393;-60
2021/12/24 02:31:52;;;;;;;;;7.00;5.75;;;;;15.95;46.22;96881.94;4849430;28;104087;-60
2021/12/24 02:34:19;;;;;;;;;6.75;5.25;;;;;15.97;45.77;96877.84;4824065;28;102436;-59
2021/12/24 02:36:47;;;;;;;;;5.75;5.00;;;;;15.97;46.12;96872.41;4885961;28;102788;-59
2021/12/24 02:39:13;;;;;;;;;4.00;3.00;;;;;15.98;45.86;96863.13;4839559;28;102569;-59
2021/12/24 02:41:40;;;;;;;;;4.00;4.00;;;;;15.99;45.76;96859.28;4840153;28;105090;-59
2021/12/24 02:44:08;;;;;;;;;4.25;4.25;;;;;16.00;45.95;96866.38;4856063;28;102663;-59
2021/12/24 02:47:08;;;;;;;;;4.50;4.50;;;;;16.00;45.61;96860.94;4850960;28;102584;-59
2021/12/24 02:55:00;;;;;;;;;5.75;5.00;;;;;16.04;45.76;96862.00;4911062;28;102894;-59
2021/12/24 02:57:28;;;;;;;;;4.50;3.75;;;;;16.05;45.55;96865.56;4890127;28;102433;-59
2021/12/24 03:00:00;;;;;;;;;5.00;4.75;;;;;16.06;45.52;96856.28;4886572;27;103419;-59
2021/12/24 03:02:27;;;;;;;;;4.25;3.75;;;;;16.07;45.36;96844.28;4907145;28;104443;-59
2021/12/24 03:04:54;;;;;;;;;4.00;3.25;;;;;16.08;44.85;96849.44;4892904;28;102938;-59
2021/12/24 03:07:21;;;;;;;;;4.75;4.00;;;;;16.08;45.06;96852.16;4910849;28;102677;-60
2021/12/24 03:09:48;;;;;;;;;5.00;4.00;;;;;16.11;45.41;96852.72;4885566;28;102199;-60
2021/12/24 03:12:15;;;;;;;;;4.00;4.00;;;;;16.10;45.13;96843.72;4888574;28;104127;-59
2021/12/24 03:14:42;;;;;;;;;5.00;4.00;;;;;16.11;44.96;96841.81;4900825;28;102432;-60
2021/12/24 03:17:13;;;;;;;;;6.50;4.00;;;;;16.10;45.05;96838.28;4918263;28;103933;-60
2021/12/24 03:19:40;;;;;;;;;4.00;4.00;;;;;16.11;45.39;96839.91;4915020;28;103407;-60
2021/12/24 03:22:28;;;;;;;;;4.00;4.00;;;;;16.11;45.11;96834.47;4923049;28;104553;-60
2021/12/24 03:24:55;;;;;;;;;4.00;4.00;;;;;16.11;45.15;96833.63;4900788;28;103181;-59
2021/12/24 03:27:24;;;;;;;;;4.25;4.25;;;;;16.11;45.00;96839.09;4919981;28;105042;-60
2021/12/24 03:29:51;;;;;;;;;5.00;4.00;;;;;16.10;44.88;96832.81;4900978;28;103806;-59
2021/12/24 03:32:21;;;;;;;;;3.00;3.00;;;;;16.11;44.82;96833.63;4917702;27;104567;-59
2021/12/24 03:34:48;;;;;;;;;6.00;5.25;;;;;16.11;45.19;96818.09;4912421;28;104206;-59
2021/12/24 03:37:15;;;;;;;;;5.25;3.25;;;;;16.11;45.02;96825.47;4892532;28;103910;-60
2021/12/24 03:39:43;;;;;;;;;4.00;3.00;;;;;16.12;44.35;96825.16;4918947;28;102584;-60
2021/12/24 03:42:10;;;;;;;;;3.75;3.75;;;;;16.12;45.15;96824.38;4902695;28;104130;-60
2021/12/24 03:44:42;;;;;;;;;5.25;3.00;;;;;16.12;44.47;96816.97;4921634;28;102696;-59
2021/12/24 03:47:13;;;;;;;;;4.50;4.00;;;;;16.12;44.85;96818.91;4902651;28;102510;-60
2021/12/24 03:54:58;;;;;;;;;2.50;2.50;;;;;16.12;44.87;96813.47;4903663;28;102361;-60
2021/12/24 03:57:26;;;;;;;;;3.00;3.00;;;;;16.11;44.19;96812.63;4909642;28;104741;-59
2021/12/24 03:59:53;;;;;;;;;3.75;3.00;;;;;16.11;44.39;96807.19;4913367;27;103442;-60
2021/12/24 04:02:20;;;;;;;;;4.50;2.75;;;;;16.10;44.27;96800.09;4857288;28;104097;-60
2021/12/24 04:04:50;;;;;;;;;3.00;3.00;;;;;16.07;44.54;96806.91;4920614;28;103628;-60
2021/12/24 04:07:17;;;;;;;;;4.00;3.50;;;;;16.08;45.06;96803.09;4919104;28;102719;-60
2021/12/24 04:09:55;;;;;;;;;5.50;4.25;;;;;16.08;44.59;96792.19;4928085;28;102510;-60
2021/12/24 04:12:22;;;;;;;;;4.00;4.00;;;;;16.06;44.45;96799.03;4876511;28;108853;-60
2021/12/24 04:14:51;;;;;;;;;3.75;3.75;;;;;16.07;44.13;96795.22;4899936;28;102561;-60
2021/12/24 04:17:19;;;;;;;;;3.00;3.00;;;;;16.08;44.01;96799.53;4911168;28;104442;-60
2021/12/24 04:25:18;;;;;;;;;3.00;3.00;;;;;16.07;44.48;96796.00;4914418;28;102474;-60
2021/12/24 04:27:45;;;;;;;;;3.75;3.00;;;;;16.06;44.98;96802.56;4907252;28;106056;-60
2021/12/24 04:30:16;;;;;;;;;3.75;3.75;;;;;16.05;44.17;96790.03;4914811;28;102905;-59
2021/12/24 04:35:37;;;;;;;;;4.00;3.00;;;;;16.05;44.45;96791.94;4926065;28;102559;-60
2021/12/24 04:51:25;;;;;;;;;3.25;3.25;;;;;16.01;43.56;96772.59;4880678;28;103618;-60
2021/12/24 05:04:54;;;;;;;;;2.75;2.75;;;;;15.98;43.88;96780.53;4890571;28;109318;-60
2021/12/24 05:08:25;;;;;;;;;2.25;2.25;;;;;15.98;44.21;96786.00;4913557;28;102464;-60
2021/12/24 05:10:20;;;;;;;;;3.25;3.00;;;;;15.97;44.52;96779.72;4913325;28;103375;-60
2021/12/24 05:12:47;;;;;;;;;4.00;4.00;;;;;15.98;44.06;96781.34;4893798;28;103481;-60
2021/12/24 05:15:14;;;;;;;;;5.75;5.00;;;;;15.98;43.87;96778.63;4881221;28;105822;-59
2021/12/24 05:22:57;;;;;;;;;8.50;8.00;;;;;15.95;43.75;96765.53;4900826;28;103432;-60
2021/12/24 05:25:24;;;;;;;;;11.50;9.00;;;;;15.97;43.69;96773.44;4903544;28;104301;-60
2021/12/24 05:27:51;;;;;;;;;9.25;8.50;;;;;15.95;43.63;96771.00;4864382;28;103044;-60
2021/12/24 05:30:18;;;;;;;;;8.75;7.50;;;;;15.96;44.17;96775.34;4912985;28;102822;-60
2021/12/24 05:32:45;;;;;;;;;7.00;7.00;;;;;15.96;44.26;96772.63;4898830;28;102434;-59
2021/12/24 05:35:12;;;;;;;;;11.00;7.50;;;;;15.98;44.30;96766.91;4883321;28;103797;-59
2021/12/24 05:37:39;;;;;;;;;12.50;9.00;;;;;15.98;43.85;96767.72;4891910;28;103945;-60
2021/12/24 05:40:07;;;;;;;;;8.00;8.00;;;;;15.98;43.85;96765.00;4927215;28;102665;-60
2021/12/24 05:42:34;;;;;;;;;7.75;7.00;;;;;16.01;43.70;96763.59;4915425;28;102669;-60
2021/12/24 05:45:04;;;;;;;;;9.00;7.00;;;;;16.04;44.13;96771.22;4913726;28;104004;-60
2021/12/24 05:47:50;;;;;;;;;8.00;7.00;;;;;16.05;43.87;96765.50;4914332;28;108855;-60
2021/12/24 05:50:17;;;;;;;;;9.25;8.00;;;;;16.06;43.82;96760.84;4907733;28;104424;-59
2021/12/24 05:52:44;;;;;;;;;6.25;6.25;;;;;16.07;44.31;96762.50;4911023;28;103027;-59
2021/12/24 05:55:12;;;;;;;;;8.25;8.25;;;;;16.06;44.33;96761.69;4899016;28;104056;-60
2021/12/24 05:57:39;;;;;;;;;6.75;6.75;;;;;16.10;43.68;96755.66;4907789;28;103757;-60
2021/12/24 06:00:07;;;;;;;;;6.50;5.50;;;;;16.09;43.84;96757.56;4925212;28;103520;-60
2021/12/24 06:02:34;;;;;;;;;7.00;6.00;;;;;16.10;44.19;96756.47;4879106;28;104694;-60
2021/12/24 06:05:02;;;;;;;;;7.75;6.75;;;;;16.11;43.81;96762.75;4915320;28;104082;-60
2021/12/24 06:07:29;;;;;;;;;8.50;6.50;;;;;16.12;44.06;96754.25;4919897;28;103331;-60
2021/12/24 06:09:56;;;;;;;;;5.25;5.25;;;;;16.12;44.09;96764.38;4915975;28;103155;-59
2021/12/24 06:12:23;;;;;;;;;6.75;6.00;;;;;16.14;44.02;96759.44;4883576;28;104040;-59
2021/12/24 06:14:54;;;;;;;;;6.00;6.00;;;;;16.17;44.49;96761.59;4912973;28;104289;-60
2021/12/24 06:17:23;;;;;;;;;7.00;6.25;;;;;16.18;43.70;96763.25;4894645;28;105870;-59
2021/12/24 06:19:50;;;;;;;;;6.00;6.00;;;;;16.20;44.11;96755.59;4898614;28;102506;-59
2021/12/24 06:22:17;;;;;;;;;6.50;5.00;;;;;16.22;44.12;96758.84;4889615;28;104177;-60
2021/12/24 06:24:44;;;;;;;;;6.25;5.25;;;;;16.24;43.62;96762.13;4920830;28;108980;-59
2021/12/24 06:27:11;;;;;;;;;6.00;5.50;;;;;16.23;43.62;96755.84;4911461;27;102536;-60
2021/12/24 06:29:38;;;;;;;;;6.00;6.00;;;;;16.25;43.74;96758.31;4891769;28;103792;-60
2021/12/24 06:32:05;;;;;;;;;5.50;5.00;;;;;16.27;44.00;96761.53;4884841;28;103016;-60
2021/12/24 06:34:32;;;;;;;;;6.00;6.00;;;;;16.27;43.50;96754.19;4923040;28;104132;-60
2021/12/24 06:36:59;;;;;;;;;6.50;5.50;;;;;16.28;43.66;96758.56;4916329;28;102989;-60
2021/12/24 06:39:26;;;;;;;;;5.50;5.50;;;;;16.29;44.17;96762.09;4892812;28;104951;-59
2021/12/24 06:41:54;;;;;;;;;9.00;5.75;;;;;16.30;43.86;96763.72;4899246;28;104394;-59
2021/12/24 06:44:21;;;;;;;;;8.75;6.75;;;;;16.31;44.24;96765.34;4923625;28;104082;-60
2021/12/24 06:46:48;;;;;;;;;8.75;7.00;;;;;16.31;43.42;96768.88;4885200;28;102375;-60
2021/12/24 06:49:16;;;;;;;;;6.00;6.00;;;;;16.30;43.48;96764.53;4912049;28;102624;-60
2021/12/24 06:51:43;;;;;;;;;5.00;5.00;;;;;16.32;43.54;96762.34;4916500;27;103336;-59
2021/12/24 06:54:11;;;;;;;;;5.75;5.75;;;;;16.34;43.63;96779.25;4908346;27;105845;-59
2021/12/24 06:56:42;;;;;;;;;4.50;4.50;;;;;16.36;43.84;96765.31;4904501;28;106374;-60
2021/12/24 06:59:09;;;;;;;;;6.00;5.25;;;;;16.39;43.91;96753.84;4896633;28;102655;-59
2021/12/24 07:01:36;;;;;;;;;7.25;6.00;;;;;16.41;43.58;96757.91;4911569;28;104867;-59
2021/12/24 07:04:04;;;;;;;;;5.50;5.50;;;;;16.44;44.10;96757.34;4925651;28;106142;-59
2021/12/24 07:06:32;;;;;;;;;5.25;5.00;;;;;16.47;43.37;96766.88;4909392;28;103422;-60
2021/12/24 07:08:59;;;;;;;;;6.00;6.00;;;;;16.46;43.74;96759.78;4920318;27;103997;-59
2021/12/24 07:11:26;;;;;;;;;5.00;5.00;;;;;16.48;44.01;96769.31;4916492;28;102656;-59
2021/12/24 07:13:53;;;;;;;;;5.50;5.00;;;;;16.49;43.53;96764.66;4896518;28;103998;-59
2021/12/24 07:16:20;;;;;;;;;6.00;5.00;;;;;16.51;44.21;96770.69;4890658;28;104301;-60
2021/12/24 07:18:47;;;;;;;;;4.75;4.75;;;;;16.51;43.60;96763.31;4910948;28;102703;-59
2021/12/24 07:21:14;;;;;;;;;4.75;4.75;;;;;16.52;43.65;96770.38;4903939;28;102574;-60
2021/12/24 07:23:41;;;;;;;;;5.00;4.00;;;;;16.56;43.63;96767.09;4872482;28;104225;-60
2021/12/24 07:26:08;;;;;;;;;5.00;5.00;;;;;16.56;43.81;96759.72;4893945;28;102485;-59
2021/12/24 07:28:35;;;;;;;;;6.00;5.00;;;;;16.58;43.37;96756.72;4897197;28;104378;-60
2021/12/24 07:31:02;;;;;;;;;4.25;4.25;;;;;16.59;44.02;96761.91;4897820;28;104307;-60
2021/12/24 07:33:29;;;;;;;;;2.75;2.75;;;;;16.60;43.25;96749.91;4895123;28;104472;-60
2021/12/24 07:35:56;;;;;;;;;5.25;5.25;;;;;16.61;43.16;96757.00;4905957;28;102537;-60
2021/12/24 07:38:23;;;;;;;;;4.00;4.00;;;;;16.64;43.96;96750.97;4896790;28;102464;-60
2021/12/24 07:40:50;;;;;;;;;7.00;6.00;;;;;16.67;43.38;96749.56;4908010;28;103672;-60
2021/12/24 07:43:18;;;;;;;;;5.00;5.00;;;;;16.68;43.32;96754.75;4883616;28;104138;-60
2021/12/24 07:45:46;;;;;;;;;5.25;4.25;;;;;16.70;43.15;96758.03;4901368;28;103493;-60
2021/12/24 07:48:15;;;;;;;;;5.00;5.00;;;;;16.72;43.28;96749.53;4905425;28;102453;-60
2021/12/24 07:53:13;;;;;;;;;3.50;2.75;;;;;16.75;43.75;96763.41;4900255;28;104428;-60
2021/12/24 07:55:40;;;;;;;;;5.75;4.00;;;;;16.75;43.34;96752.50;4896777;28;102335;-60
2021/12/24 07:58:07;;;;;;;;;4.50;4.00;;;;;16.77;43.57;96738.56;4899850;28;102520;-60
2021/12/24 08:00:35;;;;;;;;;3.75;3.75;;;;;16.77;43.60;96739.38;4917998;28;103537;-60
2021/12/24 08:03:03;;;;;;;;;5.00;5.00;;;;;16.78;43.10;96730.09;4893508;28;109229;-60
2021/12/24 08:05:32;;;;;;;;;6.25;4.75;;;;;16.80;43.81;96736.09;4915933;28;104060;-60
2021/12/24 08:08:00;;;;;;;;;5.75;5.00;;;;;16.79;43.03;96742.66;4902592;28;102978;-60
2021/12/24 08:10:27;;;;;;;;;6.00;4.50;;;;;16.81;44.24;96751.38;4903601;27;104375;-60
2021/12/24 08:12:54;;;;;;;;;3.50;3.00;;;;;16.81;43.35;96743.19;4917905;28;104007;-60
2021/12/24 08:15:22;;;;;;;;;5.00;5.00;;;;;16.79;43.95;96759.03;4917418;28;102418;-60
2021/12/24 08:17:49;;;;;;;;;4.25;4.25;;;;;16.81;44.47;96759.56;4903927;28;102651;-60
2021/12/24 08:20:21;;;;;;;;;6.75;6.00;;;;;16.84;43.62;96756.25;4903902;28;103628;-60
2021/12/24 08:22:49;;;;;;;;;3.00;3.00;;;;;16.85;43.51;96755.16;4909056;28;103820;-60
2021/12/24 08:25:17;;;;;;;;;4.00;4.00;;;;;16.87;43.69;96750.22;4922586;28;102357;-60
2021/12/24 08:27:44;;;;;;;;;5.50;4.50;;;;;16.89;43.29;96753.47;4907385;28;102501;-60
2021/12/24 08:30:12;;;;;;;;;4.75;4.00;;;;;16.91;43.66;96748.56;4915058;28;102743;-60
2021/12/24 08:32:40;;;;;;;;;3.25;3.25;;;;;16.93;44.62;96749.06;4920365;28;104083;-60
2021/12/24 08:35:12;;;;;;;;;4.00;4.00;;;;;16.91;43.73;96754.00;4904759;28;102913;-60
2021/12/24 08:37:41;;;;;;;;;5.75;5.00;;;;;16.80;44.24;96749.72;4896644;28;103597;-60
2021/12/24 08:40:08;;;;;;;;;5.00;5.00;;;;;16.72;43.98;96758.53;4890192;28;102664;-60
2021/12/24 08:42:35;;;;;;;;;6.00;6.00;;;;;16.64;44.06;96750.16;4925134;28;104084;-60
2021/12/24 08:45:03;;;;;;;;;7.00;5.00;;;;;16.57;43.83;96739.50;4915040;28;102515;-60
2021/12/24 08:47:30;;;;;;;;;5.50;5.00;;;;;16.49;43.86;96738.22;4918547;28;102393;-60
2021/12/24 08:49:57;;;;;;;;;7.25;6.75;;;;;16.42;43.84;96737.72;4908858;28;102624;-60
2021/12/24 08:52:24;;;;;;;;;4.75;4.00;;;;;16.38;44.07;96739.41;4907327;28;104015;-60
2021/12/24 08:54:52;;;;;;;;;7.25;5.75;;;;;16.33;43.72;96730.44;4931924;28;102333;-60
2021/12/24 08:57:19;;;;;;;;;6.00;6.00;;;;;16.31;43.78;96736.16;4907158;28;102494;-60
2021/12/24 08:59:46;;;;;;;;;5.00;5.00;;;;;16.29;44.27;96748.47;4906234;28;102548;-60
2021/12/24 09:02:16;;;;;;;;;6.50;5.50;;;;;16.26;44.08;96743.53;4910248;28;104431;-60
2021/12/24 09:04:43;;;;;;;;;4.00;4.00;;;;;16.23;44.08;96744.94;4916849;28;102463;-60
2021/12/24 09:07:10;;;;;;;;;7.00;5.50;;;;;16.20;44.01;96750.16;4917619;28;102456;-60
2021/12/24 09:09:37;;;;;;;;;6.00;5.25;;;;;16.16;44.07;96743.63;4895233;28;102600;-60
2021/12/24 09:12:05;;;;;;;;;5.50;3.50;;;;;16.10;43.90;96739.28;4903619;28;104261;-60
2021/12/24 09:14:32;;;;;;;;;7.00;5.25;;;;;16.05;44.18;96732.78;4920383;28;103573;-60
2021/12/24 09:17:02;;;;;;;;;7.50;6.00;;;;;16.03;43.61;96736.88;4926544;28;102458;-60
2021/12/24 09:19:30;;;;;;;;;6.50;5.50;;;;;15.99;43.65;96733.88;4898649;28;103479;-60
2021/12/24 09:21:58;;;;;;;;;4.50;4.25;;;;;15.96;43.77;96723.56;4928971;27;105636;-60
2021/12/24 09:24:26;;;;;;;;;5.25;5.00;;;;;15.94;44.07;96720.28;4897590;28;102365;-60
2021/12/24 11:17:55;;;;;;;;;12.00;10.50;;;;;14.98;43.90;96624.53;4804090;28;102838;-96
2021/12/24 11:21:35;;;;;;;;;8.25;7.00;;;;;15.02;43.51;96631.06;4612219;28;106588;-96
2021/12/24 11:24:38;;;;;;;;;9.00;7.00;;;;;14.98;43.82;96597.34;4604195;28;101370;-96
2021/12/24 12:50:19;;;;;;;;;17.25;14.00;;;;;16.60;49.07;96553.44;1334416;23;102816;-96
2021/12/24 13:36:14;;;;;;;;;8.25;7.75;;;;;16.72;47.58;96583.03;515095;26;101820;-96
2021/12/24 13:38:48;;;;;;;;;7.50;6.25;;;;;16.70;47.71;96575.16;4710878;28;102435;-96
2021/12/24 13:41:43;;;;;;;;;8.00;8.00;;;;;16.74;47.36;96587.13;4597675;29;103062;-96
2021/12/24 13:44:33;;;;;;;;;9.75;7.25;;;;;16.77;47.08;96602.91;4652289;29;101715;-96
2021/12/24 13:47:39;;;;;;;;;;;;;;;;;;;;;
2021/12/24 17:33:56;;;;;;;;;8.25;6.00;;;;;15.41;48.05;96573.97;2393452;23;102809;-81
2021/12/24 18:00:21;;;;;;;;;6.25;4.50;;;;;15.24;48.37;96568.09;4889142;23;104442;-77
2021/12/24 18:02:52;;;;;;;;;6.00;5.00;;;;;15.24;48.36;96566.19;4868492;28;102868;-77
2021/12/24 18:05:21;;;;;;;;;7.00;5.00;;;;;15.21;48.37;96549.59;4853029;28;103598;-77
2021/12/24 18:07:52;;;;;;;;;5.75;4.75;;;;;15.18;48.44;96546.31;4877302;28;104020;-77
2021/12/24 18:10:23;;;;;;;;;5.00;5.00;;;;;15.17;48.38;96554.78;4838758;28;103037;-77
2021/12/24 18:12:53;;;;;;;;;5.75;5.25;;;;;15.13;48.56;96550.97;4860983;28;103125;-77
2021/12/24 18:15:25;;;;;;;;;6.25;5.75;;;;;15.12;48.75;96561.06;4870688;28;104468;-76
2021/12/24 18:17:52;;;;;;;;;5.75;4.50;;;;;15.10;48.43;96552.38;4873128;28;105676;-77
2021/12/24 18:20:22;;;;;;;;;6.00;5.00;;;;;15.08;48.53;96543.66;4875728;28;102392;-77
2021/12/24 18:22:49;;;;;;;;;5.00;4.50;;;;;15.08;48.72;96548.31;4880924;28;102580;-77
2021/12/24 18:25:16;;;;;;;;;6.75;6.00;;;;;15.06;48.88;96545.03;4878232;28;102263;-77
2021/12/24 18:27:44;;;;;;;;;6.75;5.00;;;;;15.04;48.56;96541.78;4874663;28;106392;-77
2021/12/24 18:30:13;;;;;;;;;5.50;5.00;;;;;15.03;48.90;96529.28;4875212;28;102463;-77
2021/12/24 18:32:46;;;;;;;;;7.25;5.00;;;;;15.02;49.06;96539.34;4879279;28;103243;-77
2021/12/24 18:35:14;;;;;;;;;5.75;4.50;;;;;15.00;48.61;96535.25;4880537;28;102217;-77
2021/12/24 18:38:05;;;;;;;;;6.00;5.50;;;;;14.99;48.86;96541.81;4865411;28;104158;-77
2021/12/24 18:40:41;;;;;;;;;5.75;5.00;;;;;14.98;49.00;96549.16;4877988;28;102697;-77
2021/12/24 18:43:10;;;;;;;;;6.00;5.75;;;;;14.97;49.35;96552.16;4862935;28;102369;-76
2021/12/24 18:45:39;;;;;;;;;4.75;3.50;;;;;14.97;48.92;96569.28;4871625;28;105763;-77
2021/12/24 18:48:07;;;;;;;;;6.00;5.00;;;;;14.96;48.56;96556.78;4865806;28;104044;-76
2021/12/24 18:50:36;;;;;;;;;4.00;4.00;;;;;14.95;48.79;96549.69;4879909;28;102603;-76
2021/12/24 18:53:04;;;;;;;;;5.25;5.00;;;;;14.93;48.24;96551.91;4845980;28;102580;-76
2021/12/24 18:55:32;;;;;;;;;4.25;3.00;;;;;14.95;48.52;96546.19;4858659;28;103578;-76
2021/12/24 18:57:59;;;;;;;;;4.25;4.25;;;;;14.93;48.59;96554.63;4875320;28;104087;-76
2021/12/24 19:00:31;;;;;;;;;5.00;4.75;;;;;14.92;48.33;96549.44;4870141;28;104983;-76
2021/12/24 19:02:59;;;;;;;;;5.25;4.75;;;;;14.90;48.79;96551.66;4868205;28;102637;-77
2021/12/24 19:05:28;;;;;;;;;5.25;4.00;;;;;14.89;48.13;96555.47;4876640;28;102437;-76
2021/12/24 19:07:55;;;;;;;;;4.25;4.00;;;;;14.87;48.57;96558.44;4866050;28;108939;-76
2021/12/24 19:10:22;;;;;;;;;4.00;4.00;;;;;14.86;48.59;96556.81;4874329;28;102863;-76
2021/12/24 19:12:49;;;;;;;;;4.75;4.00;;;;;14.84;48.95;96563.63;4859598;28;103207;-76
2021/12/24 19:15:19;;;;;;;;;3.00;3.00;;;;;14.82;48.24;96565.81;4872823;28;103477;-76
2021/12/24 19:17:47;;;;;;;;;4.00;3.00;;;;;14.80;48.96;96557.94;4871221;28;105646;-76
2021/12/24 19:20:15;;;;;;;;;5.00;3.00;;;;;14.78;48.94;96570.16;4856556;28;102338;-76
2021/12/24 19:22:43;;;;;;;;;4.75;4.25;;;;;14.77;48.26;96561.19;4870773;28;103598;-76
2021/12/24 19:25:10;;;;;;;;;4.50;4.00;;;;;14.78;48.40;96571.00;4855430;28;102526;-76
2021/12/24 19:27:38;;;;;;;;;3.25;3.00;;;;;14.77;48.88;96569.34;4873693;28;103064;-76
2021/12/24 19:30:06;;;;;;;;;3.00;2.75;;;;;14.76;48.66;96564.22;4873326;28;102677;-76
2021/12/24 19:32:34;;;;;;;;;4.75;3.00;;;;;14.75;48.46;96577.00;4878093;28;104834;-76
2021/12/24 19:35:03;;;;;;;;;4.00;3.00;;;;;14.76;48.70;96572.38;4873690;28;102230;-77
2021/12/24 19:37:30;;;;;;;;;3.50;2.25;;;;;14.73;48.16;96585.44;4839890;28;104083;-77
2021/12/24 19:39:57;;;;;;;;;3.00;3.00;;;;;14.72;48.23;96583.78;4865918;28;102752;-77
2021/12/24 19:42:26;;;;;;;;;3.75;3.00;;;;;14.73;48.43;96579.16;4860030;28;102650;-77
2021/12/24 19:44:53;;;;;;;;;3.50;3.00;;;;;14.71;48.56;96584.91;4853325;28;102702;-77
2021/12/24 19:47:23;;;;;;;;;5.50;3.25;;;;;14.71;48.28;96584.09;4873557;28;104470;-77
2021/12/24 19:49:50;;;;;;;;;3.00;2.00;;;;;14.68;48.46;96580.00;4850583;28;103114;-77
2021/12/24 19:52:19;;;;;;;;;3.00;2.00;;;;;14.68;48.53;96590.88;4866047;28;102985;-77
2021/12/24 19:54:46;;;;;;;;;5.00;3.25;;;;;14.66;48.49;96597.69;4865084;28;103191;-77
2021/12/24 19:57:14;;;;;;;;;3.25;2.25;;;;;14.64;48.62;96603.41;4853925;28;104051;-77
2021/12/24 19:59:41;;;;;;;;;1.50;1.50;;;;;14.64;49.38;96611.56;4855270;28;102406;-76
2021/12/24 20:02:09;;;;;;;;;3.75;3.00;;;;;14.63;48.58;96617.31;4873160;28;102743;-76
2021/12/24 20:04:36;;;;;;;;;2.00;2.00;;;;;14.61;48.74;96622.19;4873243;28;102680;-76
2021/12/24 20:07:03;;;;;;;;;1.00;1.00;;;;;14.62;48.95;96627.34;4856261;28;104111;-77
2021/12/24 20:09:32;;;;;;;;;3.00;2.25;;;;;14.63;48.47;96633.63;4870036;28;102637;-77
2021/12/24 20:12:00;;;;;;;;;3.25;2.00;;;;;14.62;48.70;96642.84;4839268;28;102591;-76
2021/12/24 20:14:28;;;;;;;;;3.00;3.00;;;;;14.62;48.38;96645.59;4871809;28;102488;-77
2021/12/24 20:16:57;;;;;;;;;5.50;3.50;;;;;14.64;48.62;96651.53;4863398;28;109407;-82
2021/12/24 20:19:26;;;;;;;;;2.00;2.00;;;;;14.62;48.92;96661.91;4845079;28;104920;-84
2021/12/24 20:21:53;;;;;;;;;3.75;2.00;;;;;14.61;47.99;96658.38;4866524;28;102686;-84
2021/12/24 20:24:20;;;;;;;;;5.25;4.00;;;;;14.61;47.91;96671.97;4859400;28;105605;-84
2021/12/24 20:26:47;;;;;;;;;2.00;2.00;;;;;14.61;48.09;96696.44;4863752;28;103956;-85
2021/12/24 20:29:16;;;;;;;;;3.00;3.00;;;;;14.60;48.72;96704.88;4865868;28;103827;-83
2021/12/24 20:31:43;;;;;;;;;5.50;3.50;;;;;14.58;48.77;96735.06;4865296;28;102805;-84
2021/12/24 20:34:11;;;;;;;;;2.00;2.00;;;;;14.57;48.94;96747.03;4870378;28;102325;-88
2021/12/24 20:36:39;;;;;;;;;4.00;3.25;;;;;14.56;49.03;96742.69;4868522;28;104006;-83
2021/12/24 20:39:06;;;;;;;;;2.00;2.00;;;;;14.56;48.34;96763.63;4864443;28;102555;-83
2021/12/24 20:41:33;;;;;;;;;0.00;0.00;;;;;14.56;48.95;96769.06;4868775;28;102526;-82
2021/12/24 20:44:02;;;;;;;;;2.00;2.00;;;;;14.56;49.39;96774.50;4870464;28;104020;-84
2021/12/24 20:46:30;;;;;;;;;3.25;3.00;;;;;14.55;48.98;96762.78;4873683;28;105033;-84
2021/12/24 20:48:59;;;;;;;;;4.00;3.00;;;;;14.54;49.38;96757.66;4863002;28;102174;-82
2021/12/24 20:51:26;;;;;;;;;2.50;2.00;;;;;14.53;49.80;96785.94;4869909;28;102159;-82
2021/12/24 20:53:54;;;;;;;;;3.50;2.25;;;;;14.54;49.73;96801.16;4859365;28;102946;-85
2021/12/24 20:56:21;;;;;;;;;1.25;1.25;;;;;14.54;49.31;96821.03;4851065;28;104194;-84
2021/12/24 20:58:48;;;;;;;;;3.00;2.00;;;;;14.53;49.59;96804.97;4868783;28;102018;-84
2021/12/24 21:01:17;;;;;;;;;4.00;2.00;;;;;14.55;49.29;96808.22;4864865;28;102244;-82
2021/12/24 21:03:48;;;;;;;;;1.00;1.00;;;;;14.54;49.51;96812.03;4869269;28;102622;-84
2021/12/24 21:06:18;;;;;;;;;2.00;2.00;;;;;14.54;50.17;96822.91;4870765;28;103783;-82
2021/12/24 21:08:50;;;;;;;;;4.00;2.25;;;;;14.52;49.69;96844.13;4846124;28;103051;-81
2021/12/24 21:11:20;;;;;;;;;4.00;2.25;;;;;14.50;49.99;96847.09;4851636;28;103152;-83
2021/12/24 21:13:51;;;;;;;;;1.50;1.50;;;;;14.50;49.63;96862.63;4844877;28;104037;-87
2021/12/24 21:16:18;;;;;;;;;2.25;2.00;;;;;14.48;49.53;96867.50;4857457;28;104124;-83
2021/12/24 21:18:47;;;;;;;;;3.75;2.00;;;;;14.49;50.31;96869.97;4867817;28;102393;-83